sensor_id;sensor_type;location;lat;lon;timestamp;temperature;humidity
26182;DHT22;13927;51.534;11.866;2022-11-20T00:01:18;-4.30;99.90
26182;DHT22;13927;51.534;11.866;2022-11-20T00:03:45;-4.40;99.90
26182;DHT22;13927;51.534;11.866;2022-11-20T00:06:15;-4.40;99.90
26182;DHT22;13927;51.534;11.866;2022-11-20T00:08:42;-4.40;99.90
26182;DHT22;13927;51.534;11.866;2022-11-20T00:11:11;-4.40;99.90
26182;DHT22;13927;51.534;11.866;2022-11-20T00:13:42;-4.30;99.90
26182;DHT22;13927;51.534;11.866;2022-11-20T00:16:10;-4.40;99.90
26182;DHT22;13927;51.534;11.866;2022-11-20T00:18:37;-4.40;99.90
26182;DHT22;13927;51.534;11.866;2022-11-20T00:21:10;-4.30;99.90
26182;DHT22;13927;51.534;11.866;2022-11-20T00:23:38;-4.30;99.90
26182;DHT22;13927;51.534;11.866;2022-11-20T00:26:06;-4.30;99.90
26182;DHT22;13927;51.534;11.866;2022-11-20T00:28:33;-4.30;99.90
26182;DHT22;13927;51.534;11.866;2022-11-20T00:31:11;-4.30;99.90
26182;DHT22;13927;51.534;11.866;2022-11-20T00:33:38;-4.30;99.90
26182;DHT22;13927;51.534;11.866;2022-11-20T00:36:10;-4.30;99.90
26182;DHT22;13927;51.534;11.866;2022-11-20T00:38:36;-4.30;99.90
26182;DHT22;13927;51.534;11.866;2022-11-20T00:41:05;-4.30;99.90
26182;DHT22;13927;51.534;11.866;2022-11-20T00:43:32;-4.40;99.90
26182;DHT22;13927;51.534;11.866;2022-11-20T00:45:59;-4.50;99.90
26182;DHT22;13927;51.534;11.866;2022-11-20T00:48:27;-4.50;99.90
26182;DHT22;13927;51.534;11.866;2022-11-20T00:50:53;-4.50;99.90
26182;DHT22;13927;51.534;11.866;2022-11-20T00:53:20;-4.50;99.90
26182;DHT22;13927;51.534;11.866;2022-11-20T00:55:53;-4.50;99.90
26182;DHT22;13927;51.534;11.866;2022-11-20T00:58:20;-4.50;99.90
26182;DHT22;13927;51.534;11.866;2022-11-20T01:00:46;-4.50;99.90
26182;DHT22;13927;51.534;11.866;2022-11-20T01:03:12;-4.50;99.90
26182;DHT22;13927;51.534;11.866;2022-11-20T01:05:38;-4.50;99.90
26182;DHT22;13927;51.534;11.866;2022-11-20T01:08:04;-4.50;99.90
26182;DHT22;13927;51.534;11.866;2022-11-20T01:10:30;-4.50;99.90
26182;DHT22;13927;51.534;11.866;2022-11-20T01:12:55;-4.50;99.90
26182;DHT22;13927;51.534;11.866;2022-11-20T01:16:36;-4.50;99.90
26182;DHT22;13927;51.534;11.866;2022-11-20T01:19:06;-4.60;99.90
26182;DHT22;13927;51.534;11.866;2022-11-20T01:21:36;-4.70;99.90
26182;DHT22;13927;51.534;11.866;2022-11-20T01:24:04;-4.70;99.90
26182;DHT22;13927;51.534;11.866;2022-11-20T01:26:34;-4.70;99.90
26182;DHT22;13927;51.534;11.866;2022-11-20T01:29:02;-4.70;99.90
26182;DHT22;13927;51.534;11.866;2022-11-20T01:31:30;-4.70;99.90
26182;DHT22;13927;51.534;11.866;2022-11-20T01:34:03;-4.70;99.90
26182;DHT22;13927;51.534;11.866;2022-11-20T01:36:31;-4.70;99.90
26182;DHT22;13927;51.534;11.866;2022-11-20T01:39:01;-4.70;99.90
26182;DHT22;13927;51.534;11.866;2022-11-20T01:41:30;-4.70;99.90
26182;DHT22;13927;51.534;11.866;2022-11-20T01:44:18;-4.70;99.90
26182;DHT22;13927;51.534;11.866;2022-11-20T01:46:58;-4.70;99.90
26182;DHT22;13927;51.534;11.866;2022-11-20T01:49:27;-4.70;99.90
26182;DHT22;13927;51.534;11.866;2022-11-20T01:51:59;-4.70;99.90
26182;DHT22;13927;51.534;11.866;2022-11-20T01:54:36;-4.70;99.90
26182;DHT22;13927;51.534;11.866;2022-11-20T01:57:06;-4.70;99.90
26182;DHT22;13927;51.534;11.866;2022-11-20T01:59:35;-4.70;99.90
26182;DHT22;13927;51.534;11.866;2022-11-20T02:02:03;-4.70;99.90
26182;DHT22;13927;51.534;11.866;2022-11-20T02:04:28;-4.70;99.90
26182;DHT22;13927;51.534;11.866;2022-11-20T02:07:00;-4.80;99.90
26182;DHT22;13927;51.534;11.866;2022-11-20T02:09:27;-4.70;99.90
26182;DHT22;13927;51.534;11.866;2022-11-20T02:11:54;-4.70;99.90
26182;DHT22;13927;51.534;11.866;2022-11-20T02:14:21;-4.80;99.90
26182;DHT22;13927;51.534;11.866;2022-11-20T02:16:48;-4.70;99.90
26182;DHT22;13927;51.534;11.866;2022-11-20T02:19:35;-4.80;99.90
26182;DHT22;13927;51.534;11.866;2022-11-20T02:24:33;-4.80;99.90
26182;DHT22;13927;51.534;11.866;2022-11-20T02:29:53;-4.90;99.90
26182;DHT22;13927;51.534;11.866;2022-11-20T02:32:26;-4.90;99.90
26182;DHT22;13927;51.534;11.866;2022-11-20T02:34:54;-4.90;99.90
26182;DHT22;13927;51.534;11.866;2022-11-20T02:37:21;-4.80;99.90
26182;DHT22;13927;51.534;11.866;2022-11-20T02:39:49;-4.80;99.90
26182;DHT22;13927;51.534;11.866;2022-11-20T02:42:16;-4.80;99.90
26182;DHT22;13927;51.534;11.866;2022-11-20T02:44:42;-4.80;99.90
26182;DHT22;13927;51.534;11.866;2022-11-20T02:47:08;-4.90;99.90
26182;DHT22;13927;51.534;11.866;2022-11-20T02:49:34;-4.90;99.90
26182;DHT22;13927;51.534;11.866;2022-11-20T02:52:00;-4.90;99.90
26182;DHT22;13927;51.534;11.866;2022-11-20T02:54:26;-4.90;99.90
26182;DHT22;13927;51.534;11.866;2022-11-20T02:56:52;-4.90;99.90
26182;DHT22;13927;51.534;11.866;2022-11-20T02:59:18;-4.90;99.90
26182;DHT22;13927;51.534;11.866;2022-11-20T03:01:44;-4.90;99.90
26182;DHT22;13927;51.534;11.866;2022-11-20T03:04:09;-4.90;99.90
26182;DHT22;13927;51.534;11.866;2022-11-20T03:06:35;-4.80;99.90
26182;DHT22;13927;51.534;11.866;2022-11-20T03:09:01;-4.80;99.90
26182;DHT22;13927;51.534;11.866;2022-11-20T03:11:26;-4.80;99.90
26182;DHT22;13927;51.534;11.866;2022-11-20T03:13:52;-4.80;99.90
26182;DHT22;13927;51.534;11.866;2022-11-20T03:16:20;-4.80;99.90
26182;DHT22;13927;51.534;11.866;2022-11-20T03:18:47;-4.80;99.90
26182;DHT22;13927;51.534;11.866;2022-11-20T03:21:15;-4.80;99.90
26182;DHT22;13927;51.534;11.866;2022-11-20T03:23:41;-4.80;99.90
26182;DHT22;13927;51.534;11.866;2022-11-20T03:28:49;-4.90;99.90
26182;DHT22;13927;51.534;11.866;2022-11-20T03:31:18;-4.90;99.90
26182;DHT22;13927;51.534;11.866;2022-11-20T03:33:45;-4.90;99.90
26182;DHT22;13927;51.534;11.866;2022-11-20T03:36:13;-4.90;99.90
26182;DHT22;13927;51.534;11.866;2022-11-20T03:38:40;-4.90;99.90
26182;DHT22;13927;51.534;11.866;2022-11-20T03:41:09;-4.90;99.90
26182;DHT22;13927;51.534;11.866;2022-11-20T03:43:36;-4.90;99.90
26182;DHT22;13927;51.534;11.866;2022-11-20T03:46:02;-4.90;99.90
26182;DHT22;13927;51.534;11.866;2022-11-20T03:48:29;-4.90;99.90
26182;DHT22;13927;51.534;11.866;2022-11-20T03:51:13;-4.90;99.90
26182;DHT22;13927;51.534;11.866;2022-11-20T03:53:46;-4.90;99.90
26182;DHT22;13927;51.534;11.866;2022-11-20T03:56:15;-4.90;99.90
26182;DHT22;13927;51.534;11.866;2022-11-20T03:58:42;-5.00;99.90
26182;DHT22;13927;51.534;11.866;2022-11-20T04:01:16;-5.00;99.90
26182;DHT22;13927;51.534;11.866;2022-11-20T04:03:44;-5.00;99.90
26182;DHT22;13927;51.534;11.866;2022-11-20T04:06:22;-4.90;99.90
26182;DHT22;13927;51.534;11.866;2022-11-20T04:08:54;-5.00;99.90
26182;DHT22;13927;51.534;11.866;2022-11-20T04:11:21;-5.00;99.90
26182;DHT22;13927;51.534;11.866;2022-11-20T04:13:54;-4.90;99.90
26182;DHT22;13927;51.534;11.866;2022-11-20T04:16:21;-5.00;99.90
26182;DHT22;13927;51.534;11.866;2022-11-20T04:18:52;-4.90;99.90
26182;DHT22;13927;51.534;11.866;2022-11-20T04:21:23;-5.00;99.90
26182;DHT22;13927;51.534;11.866;2022-11-20T04:23:50;-5.00;99.90
26182;DHT22;13927;51.534;11.866;2022-11-20T04:26:17;-5.00;99.90
26182;DHT22;13927;51.534;11.866;2022-11-20T04:28:42;-5.00;99.90
26182;DHT22;13927;51.534;11.866;2022-11-20T04:31:11;-5.10;99.90
26182;DHT22;13927;51.534;11.866;2022-11-20T04:33:38;-5.10;99.90
26182;DHT22;13927;51.534;11.866;2022-11-20T04:36:07;-5.10;99.90
26182;DHT22;13927;51.534;11.866;2022-11-20T04:38:39;-5.10;99.90
26182;DHT22;13927;51.534;11.866;2022-11-20T04:41:07;-5.10;99.90
26182;DHT22;13927;51.534;11.866;2022-11-20T04:43:34;-5.10;99.90
26182;DHT22;13927;51.534;11.866;2022-11-20T04:46:00;-5.10;99.90
26182;DHT22;13927;51.534;11.866;2022-11-20T04:48:27;-5.10;99.90
26182;DHT22;13927;51.534;11.866;2022-11-20T04:50:54;-5.10;99.90
26182;DHT22;13927;51.534;11.866;2022-11-20T04:53:20;-5.10;99.90
26182;DHT22;13927;51.534;11.866;2022-11-20T04:55:47;-5.10;99.90
26182;DHT22;13927;51.534;11.866;2022-11-20T04:58:13;-5.20;99.90
26182;DHT22;13927;51.534;11.866;2022-11-20T05:00:39;-5.20;99.90
26182;DHT22;13927;51.534;11.866;2022-11-20T05:03:05;-5.20;99.90
26182;DHT22;13927;51.534;11.866;2022-11-20T05:05:31;-5.10;99.90
26182;DHT22;13927;51.534;11.866;2022-11-20T05:07:58;-5.10;99.90
26182;DHT22;13927;51.534;11.866;2022-11-20T05:10:27;-5.10;99.90
26182;DHT22;13927;51.534;11.866;2022-11-20T05:12:53;-5.20;99.90
26182;DHT22;13927;51.534;11.866;2022-11-20T05:15:19;-5.20;99.90
26182;DHT22;13927;51.534;11.866;2022-11-20T05:17:49;-5.20;99.90
26182;DHT22;13927;51.534;11.866;2022-11-20T05:20:16;-5.20;99.90
26182;DHT22;13927;51.534;11.866;2022-11-20T05:22:42;-5.20;99.90
26182;DHT22;13927;51.534;11.866;2022-11-20T05:25:09;-5.20;99.90
26182;DHT22;13927;51.534;11.866;2022-11-20T05:27:35;-5.20;99.90
26182;DHT22;13927;51.534;11.866;2022-11-20T05:30:02;-5.20;99.90
26182;DHT22;13927;51.534;11.866;2022-11-20T05:32:28;-5.20;99.90
26182;DHT22;13927;51.534;11.866;2022-11-20T05:34:54;-5.20;99.90
26182;DHT22;13927;51.534;11.866;2022-11-20T05:37:20;-5.20;99.90
26182;DHT22;13927;51.534;11.866;2022-11-20T05:39:45;-5.20;99.90
26182;DHT22;13927;51.534;11.866;2022-11-20T05:42:11;-5.20;99.90
26182;DHT22;13927;51.534;11.866;2022-11-20T05:44:55;-5.20;99.90
26182;DHT22;13927;51.534;11.866;2022-11-20T05:47:25;-5.20;99.90
26182;DHT22;13927;51.534;11.866;2022-11-20T05:49:52;-5.20;99.90
26182;DHT22;13927;51.534;11.866;2022-11-20T05:52:18;-5.20;99.90
26182;DHT22;13927;51.534;11.866;2022-11-20T05:54:43;-5.20;99.90
26182;DHT22;13927;51.534;11.866;2022-11-20T05:57:09;-5.30;99.90
26182;DHT22;13927;51.534;11.866;2022-11-20T05:59:35;-5.30;99.90
26182;DHT22;13927;51.534;11.866;2022-11-20T06:02:00;-5.30;99.90
26182;DHT22;13927;51.534;11.866;2022-11-20T06:04:26;-5.30;99.90
26182;DHT22;13927;51.534;11.866;2022-11-20T06:06:52;-5.30;99.90
26182;DHT22;13927;51.534;11.866;2022-11-20T06:09:18;-5.30;99.90
26182;DHT22;13927;51.534;11.866;2022-11-20T06:11:44;-5.30;99.90
26182;DHT22;13927;51.534;11.866;2022-11-20T06:14:09;-5.30;99.90
26182;DHT22;13927;51.534;11.866;2022-11-20T06:16:35;-5.40;99.90
26182;DHT22;13927;51.534;11.866;2022-11-20T06:19:01;-5.40;99.90
26182;DHT22;13927;51.534;11.866;2022-11-20T06:21:27;-5.40;99.90
26182;DHT22;13927;51.534;11.866;2022-11-20T06:23:53;-5.40;99.90
26182;DHT22;13927;51.534;11.866;2022-11-20T06:26:21;-5.40;99.90
26182;DHT22;13927;51.534;11.866;2022-11-20T06:28:49;-5.40;99.90
26182;DHT22;13927;51.534;11.866;2022-11-20T06:31:18;-5.40;99.90
26182;DHT22;13927;51.534;11.866;2022-11-20T06:33:46;-5.40;99.90
26182;DHT22;13927;51.534;11.866;2022-11-20T06:36:14;-5.50;99.90
26182;DHT22;13927;51.534;11.866;2022-11-20T06:38:41;-5.50;99.90
26182;DHT22;13927;51.534;11.866;2022-11-20T06:41:10;-5.50;99.90
26182;DHT22;13927;51.534;11.866;2022-11-20T06:43:38;-5.40;99.90
26182;DHT22;13927;51.534;11.866;2022-11-20T06:46:04;-5.40;99.90
26182;DHT22;13927;51.534;11.866;2022-11-20T06:48:30;-5.40;99.90
26182;DHT22;13927;51.534;11.866;2022-11-20T06:50:56;-5.40;99.90
26182;DHT22;13927;51.534;11.866;2022-11-20T06:53:23;-5.40;99.90
26182;DHT22;13927;51.534;11.866;2022-11-20T06:55:49;-5.40;99.90
26182;DHT22;13927;51.534;11.866;2022-11-20T06:58:16;-5.40;99.90
26182;DHT22;13927;51.534;11.866;2022-11-20T07:00:42;-5.30;99.90
26182;DHT22;13927;51.534;11.866;2022-11-20T07:03:10;-5.30;99.90
26182;DHT22;13927;51.534;11.866;2022-11-20T07:05:36;-5.20;99.90
26182;DHT22;13927;51.534;11.866;2022-11-20T07:08:04;-5.20;99.90
26182;DHT22;13927;51.534;11.866;2022-11-20T07:10:31;-5.10;99.90
26182;DHT22;13927;51.534;11.866;2022-11-20T07:12:57;-5.00;99.90
26182;DHT22;13927;51.534;11.866;2022-11-20T07:15:24;-4.90;99.90
26182;DHT22;13927;51.534;11.866;2022-11-20T07:17:51;-4.80;99.90
26182;DHT22;13927;51.534;11.866;2022-11-20T07:20:17;-4.70;99.90
26182;DHT22;13927;51.534;11.866;2022-11-20T07:22:43;-4.60;99.90
26182;DHT22;13927;51.534;11.866;2022-11-20T07:25:09;-4.50;99.90
26182;DHT22;13927;51.534;11.866;2022-11-20T07:27:35;-4.50;99.90
26182;DHT22;13927;51.534;11.866;2022-11-20T07:30:03;-4.40;99.90
26182;DHT22;13927;51.534;11.866;2022-11-20T07:32:29;-4.30;99.90
26182;DHT22;13927;51.534;11.866;2022-11-20T07:34:55;-4.20;99.90
26182;DHT22;13927;51.534;11.866;2022-11-20T07:37:21;-4.10;99.90
26182;DHT22;13927;51.534;11.866;2022-11-20T07:39:47;-4.00;99.90
26182;DHT22;13927;51.534;11.866;2022-11-20T07:42:13;-3.90;99.90
26182;DHT22;13927;51.534;11.866;2022-11-20T07:44:38;-3.80;99.90
26182;DHT22;13927;51.534;11.866;2022-11-20T07:47:05;-3.70;99.90
26182;DHT22;13927;51.534;11.866;2022-11-20T07:49:30;-3.60;99.90
26182;DHT22;13927;51.534;11.866;2022-11-20T07:51:56;-3.50;99.90
26182;DHT22;13927;51.534;11.866;2022-11-20T07:54:22;-3.40;99.90
26182;DHT22;13927;51.534;11.866;2022-11-20T07:56:49;-3.30;99.90
26182;DHT22;13927;51.534;11.866;2022-11-20T07:59:15;-3.30;99.90
26182;DHT22;13927;51.534;11.866;2022-11-20T08:01:41;-3.10;99.90
26182;DHT22;13927;51.534;11.866;2022-11-20T08:04:08;-3.10;99.90
26182;DHT22;13927;51.534;11.866;2022-11-20T08:06:35;-3.00;99.90
26182;DHT22;13927;51.534;11.866;2022-11-20T08:09:02;-3.00;99.90
26182;DHT22;13927;51.534;11.866;2022-11-20T08:11:28;-3.00;99.90
26182;DHT22;13927;51.534;11.866;2022-11-20T08:14:12;-3.10;99.90
26182;DHT22;13927;51.534;11.866;2022-11-20T08:16:48;-3.20;99.90
26182;DHT22;13927;51.534;11.866;2022-11-20T08:19:16;-3.20;99.90
26182;DHT22;13927;51.534;11.866;2022-11-20T08:21:44;-3.10;99.90
26182;DHT22;13927;51.534;11.866;2022-11-20T08:24:10;-3.00;99.90
26182;DHT22;13927;51.534;11.866;2022-11-20T08:26:38;-2.90;99.90
26182;DHT22;13927;51.534;11.866;2022-11-20T08:29:05;-2.80;99.90
26182;DHT22;13927;51.534;11.866;2022-11-20T08:31:31;-2.80;99.90
26182;DHT22;13927;51.534;11.866;2022-11-20T08:33:57;-2.80;99.90
26182;DHT22;13927;51.534;11.866;2022-11-20T08:36:24;-2.70;99.90
26182;DHT22;13927;51.534;11.866;2022-11-20T08:38:55;-2.60;99.90
26182;DHT22;13927;51.534;11.866;2022-11-20T08:41:21;-2.60;99.90
26182;DHT22;13927;51.534;11.866;2022-11-20T08:44:01;-2.50;99.90
26182;DHT22;13927;51.534;11.866;2022-11-20T08:46:40;-2.30;99.90
26182;DHT22;13927;51.534;11.866;2022-11-20T08:49:08;-2.00;99.90
26182;DHT22;13927;51.534;11.866;2022-11-20T08:51:36;-1.80;99.90
26182;DHT22;13927;51.534;11.866;2022-11-20T08:54:03;-1.60;99.90
26182;DHT22;13927;51.534;11.866;2022-11-20T08:56:29;-1.50;99.90
26182;DHT22;13927;51.534;11.866;2022-11-20T08:58:55;-1.40;99.90
26182;DHT22;13927;51.534;11.866;2022-11-20T09:01:22;-1.20;99.90
26182;DHT22;13927;51.534;11.866;2022-11-20T09:03:49;-1.20;99.90
26182;DHT22;13927;51.534;11.866;2022-11-20T09:06:15;-1.20;99.90
26182;DHT22;13927;51.534;11.866;2022-11-20T09:08:42;-1.10;99.90
26182;DHT22;13927;51.534;11.866;2022-11-20T09:11:08;-1.10;99.90
26182;DHT22;13927;51.534;11.866;2022-11-20T09:13:35;-1.10;99.90
26182;DHT22;13927;51.534;11.866;2022-11-20T09:16:04;-1.10;99.90
26182;DHT22;13927;51.534;11.866;2022-11-20T09:18:33;-1.00;99.90
26182;DHT22;13927;51.534;11.866;2022-11-20T09:21:13;-0.90;99.90
26182;DHT22;13927;51.534;11.866;2022-11-20T09:23:39;-0.90;99.90
26182;DHT22;13927;51.534;11.866;2022-11-20T09:26:12;-1.00;99.90
26182;DHT22;13927;51.534;11.866;2022-11-20T09:28:39;-0.80;99.90
26182;DHT22;13927;51.534;11.866;2022-11-20T09:31:07;-0.70;99.90
26182;DHT22;13927;51.534;11.866;2022-11-20T09:33:33;-0.50;99.90
26182;DHT22;13927;51.534;11.866;2022-11-20T09:35:59;-0.60;99.90
26182;DHT22;13927;51.534;11.866;2022-11-20T09:38:25;-0.50;99.90
26182;DHT22;13927;51.534;11.866;2022-11-20T09:41:02;-0.50;99.90
26182;DHT22;13927;51.534;11.866;2022-11-20T09:46:40;-0.30;99.90
26182;DHT22;13927;51.534;11.866;2022-11-20T09:53:11;-0.20;99.90
26182;DHT22;13927;51.534;11.866;2022-11-20T09:55:39;-0.10;99.90
26182;DHT22;13927;51.534;11.866;2022-11-20T09:58:07;-0.10;99.90
26182;DHT22;13927;51.534;11.866;2022-11-20T10:01:14;-0.20;99.90
26182;DHT22;13927;51.534;11.866;2022-11-20T10:04:12;-0.10;99.90
26182;DHT22;13927;51.534;11.866;2022-11-20T10:09:50;0.10;99.90
26182;DHT22;13927;51.534;11.866;2022-11-20T10:26:53;0.50;99.90
26182;DHT22;13927;51.534;11.866;2022-11-20T10:29:43;0.60;99.90
26182;DHT22;13927;51.534;11.866;2022-11-20T10:32:18;0.60;99.90
26182;DHT22;13927;51.534;11.866;2022-11-20T10:40:51;0.70;99.90
26182;DHT22;13927;51.534;11.866;2022-11-20T10:46:01;0.70;99.90
26182;DHT22;13927;51.534;11.866;2022-11-20T10:48:31;0.60;99.90
26182;DHT22;13927;51.534;11.866;2022-11-20T10:50:59;0.90;99.90
26182;DHT22;13927;51.534;11.866;2022-11-20T10:56:46;1.20;99.90
26182;DHT22;13927;51.534;11.866;2022-11-20T10:59:41;1.30;99.90
26182;DHT22;13927;51.534;11.866;2022-11-20T11:02:22;1.10;99.90
26182;DHT22;13927;51.534;11.866;2022-11-20T11:04:53;1.20;99.90
26182;DHT22;13927;51.534;11.866;2022-11-20T11:07:35;1.40;99.90
26182;DHT22;13927;51.534;11.866;2022-11-20T11:10:05;1.50;99.90
26182;DHT22;13927;51.534;11.866;2022-11-20T11:12:44;1.60;99.90
26182;DHT22;13927;51.534;11.866;2022-11-20T11:15:42;1.50;99.90
26182;DHT22;13927;51.534;11.866;2022-11-20T11:18:10;1.60;99.90
26182;DHT22;13927;51.534;11.866;2022-11-20T11:20:36;1.60;99.90
26182;DHT22;13927;51.534;11.866;2022-11-20T11:23:03;1.60;99.90
26182;DHT22;13927;51.534;11.866;2022-11-20T11:28:04;1.70;99.90
26182;DHT22;13927;51.534;11.866;2022-11-20T11:30:45;1.70;99.90
26182;DHT22;13927;51.534;11.866;2022-11-20T11:33:30;1.70;99.90
26182;DHT22;13927;51.534;11.866;2022-11-20T11:36:18;1.70;99.90
26182;DHT22;13927;51.534;11.866;2022-11-20T11:38:51;1.70;99.90
26182;DHT22;13927;51.534;11.866;2022-11-20T11:41:31;1.70;99.90
26182;DHT22;13927;51.534;11.866;2022-11-20T11:44:21;1.80;99.90
26182;DHT22;13927;51.534;11.866;2022-11-20T11:47:24;1.90;99.90
26182;DHT22;13927;51.534;11.866;2022-11-20T11:50:25;2.00;99.90
26182;DHT22;13927;51.534;11.866;2022-11-20T11:52:56;2.30;99.90
26182;DHT22;13927;51.534;11.866;2022-11-20T11:55:43;2.50;99.90
26182;DHT22;13927;51.534;11.866;2022-11-20T12:07:49;2.80;99.90
26182;DHT22;13927;51.534;11.866;2022-11-20T12:10:19;3.00;99.90
26182;DHT22;13927;51.534;11.866;2022-11-20T12:12:54;3.10;99.90
26182;DHT22;13927;51.534;11.866;2022-11-20T12:15:30;3.30;99.90
26182;DHT22;13927;51.534;11.866;2022-11-20T12:17:58;3.50;99.90
26182;DHT22;13927;51.534;11.866;2022-11-20T12:20:30;3.70;99.90
26182;DHT22;13927;51.534;11.866;2022-11-20T12:23:02;3.80;99.90
26182;DHT22;13927;51.534;11.866;2022-11-20T12:25:36;3.90;99.90
26182;DHT22;13927;51.534;11.866;2022-11-20T12:28:47;3.90;99.90
26182;DHT22;13927;51.534;11.866;2022-11-20T12:34:22;3.90;99.90
26182;DHT22;13927;51.534;11.866;2022-11-20T12:36:56;4.20;99.90
26182;DHT22;13927;51.534;11.866;2022-11-20T12:39:41;4.60;99.90
26182;DHT22;13927;51.534;11.866;2022-11-20T12:57:26;4.00;99.90
26182;DHT22;13927;51.534;11.866;2022-11-20T13:00:14;4.00;99.90
26182;DHT22;13927;51.534;11.866;2022-11-20T13:02:58;3.90;99.90
26182;DHT22;13927;51.534;11.866;2022-11-20T13:08:43;3.80;99.90
26182;DHT22;13927;51.534;11.866;2022-11-20T13:11:35;3.90;99.90
26182;DHT22;13927;51.534;11.866;2022-11-20T13:14:46;4.00;99.90
26182;DHT22;13927;51.534;11.866;2022-11-20T13:17:39;4.20;99.90
26182;DHT22;13927;51.534;11.866;2022-11-20T13:20:15;3.90;99.90
26182;DHT22;13927;51.534;11.866;2022-11-20T13:22:50;3.60;99.90
26182;DHT22;13927;51.534;11.866;2022-11-20T13:27:53;3.50;99.90
26182;DHT22;13927;51.534;11.866;2022-11-20T13:30:24;3.50;99.90
26182;DHT22;13927;51.534;11.866;2022-11-20T13:33:00;3.60;99.90
26182;DHT22;13927;51.534;11.866;2022-11-20T13:35:32;3.60;99.90
26182;DHT22;13927;51.534;11.866;2022-11-20T13:38:12;3.50;99.90
26182;DHT22;13927;51.534;11.866;2022-11-20T13:41:01;3.40;99.90
26182;DHT22;13927;51.534;11.866;2022-11-20T13:43:47;3.30;99.90
26182;DHT22;13927;51.534;11.866;2022-11-20T13:46:13;3.40;99.90
26182;DHT22;13927;51.534;11.866;2022-11-20T13:48:45;3.50;99.90
26182;DHT22;13927;51.534;11.866;2022-11-20T13:51:40;3.50;99.90
26182;DHT22;13927;51.534;11.866;2022-11-20T14:00:25;4.00;99.90
26182;DHT22;13927;51.534;11.866;2022-11-20T14:05:39;4.40;99.90
26182;DHT22;13927;51.534;11.866;2022-11-20T14:08:22;4.20;99.90
26182;DHT22;13927;51.534;11.866;2022-11-20T14:11:01;4.30;99.90
26182;DHT22;13927;51.534;11.866;2022-11-20T14:13:28;4.40;99.90
26182;DHT22;13927;51.534;11.866;2022-11-20T14:15:57;4.50;99.90
26182;DHT22;13927;51.534;11.866;2022-11-20T14:18:26;4.60;99.90
26182;DHT22;13927;51.534;11.866;2022-11-20T14:20:52;4.70;99.90
26182;DHT22;13927;51.534;11.866;2022-11-20T14:23:28;4.70;99.90
26182;DHT22;13927;51.534;11.866;2022-11-20T14:25:55;4.60;99.90
26182;DHT22;13927;51.534;11.866;2022-11-20T14:28:29;4.60;99.90
26182;DHT22;13927;51.534;11.866;2022-11-20T14:30:57;4.60;99.90
26182;DHT22;13927;51.534;11.866;2022-11-20T14:33:23;4.70;99.90
26182;DHT22;13927;51.534;11.866;2022-11-20T14:35:54;4.90;99.90
26182;DHT22;13927;51.534;11.866;2022-11-20T14:38:27;5.10;99.90
26182;DHT22;13927;51.534;11.866;2022-11-20T14:40:53;5.20;99.90
26182;DHT22;13927;51.534;11.866;2022-11-20T14:45:54;5.50;99.90
26182;DHT22;13927;51.534;11.866;2022-11-20T14:48:35;5.50;99.90
26182;DHT22;13927;51.534;11.866;2022-11-20T14:51:04;5.30;99.90
26182;DHT22;13927;51.534;11.866;2022-11-20T14:53:30;5.00;99.90
26182;DHT22;13927;51.534;11.866;2022-11-20T14:55:57;4.80;99.90
26182;DHT22;13927;51.534;11.866;2022-11-20T14:58:29;4.60;99.90
26182;DHT22;13927;51.534;11.866;2022-11-20T15:01:06;4.40;99.90
26182;DHT22;13927;51.534;11.866;2022-11-20T15:03:38;4.10;99.90
26182;DHT22;13927;51.534;11.866;2022-11-20T15:06:06;3.70;99.90
26182;DHT22;13927;51.534;11.866;2022-11-20T15:08:35;3.40;99.90
26182;DHT22;13927;51.534;11.866;2022-11-20T15:11:01;3.10;99.90
26182;DHT22;13927;51.534;11.866;2022-11-20T15:13:33;2.90;99.90
26182;DHT22;13927;51.534;11.866;2022-11-20T15:16:00;2.70;99.90
26182;DHT22;13927;51.534;11.866;2022-11-20T15:18:33;2.50;99.90
26182;DHT22;13927;51.534;11.866;2022-11-20T15:21:14;2.30;99.90
26182;DHT22;13927;51.534;11.866;2022-11-20T15:23:41;2.10;99.90
26182;DHT22;13927;51.534;11.866;2022-11-20T15:26:09;1.90;99.90
26182;DHT22;13927;51.534;11.866;2022-11-20T15:28:43;1.80;99.90
26182;DHT22;13927;51.534;11.866;2022-11-20T15:31:14;1.70;99.90
26182;DHT22;13927;51.534;11.866;2022-11-20T15:33:41;1.50;99.90
26182;DHT22;13927;51.534;11.866;2022-11-20T15:36:08;1.40;99.90
26182;DHT22;13927;51.534;11.866;2022-11-20T15:38:35;1.30;99.90
26182;DHT22;13927;51.534;11.866;2022-11-20T15:41:00;1.20;99.90
26182;DHT22;13927;51.534;11.866;2022-11-20T15:43:26;1.10;99.90
26182;DHT22;13927;51.534;11.866;2022-11-20T15:46:16;1.00;99.90
26182;DHT22;13927;51.534;11.866;2022-11-20T15:48:44;0.90;99.90
26182;DHT22;13927;51.534;11.866;2022-11-20T15:53:37;0.70;99.90
26182;DHT22;13927;51.534;11.866;2022-11-20T15:56:04;0.60;99.90
26182;DHT22;13927;51.534;11.866;2022-11-20T15:58:30;0.50;99.90
26182;DHT22;13927;51.534;11.866;2022-11-20T16:00:56;0.50;99.90
26182;DHT22;13927;51.534;11.866;2022-11-20T16:03:22;0.50;99.90
26182;DHT22;13927;51.534;11.866;2022-11-20T16:05:48;0.40;99.90
26182;DHT22;13927;51.534;11.866;2022-11-20T16:08:13;0.40;99.90
26182;DHT22;13927;51.534;11.866;2022-11-20T16:10:39;0.40;99.90
26182;DHT22;13927;51.534;11.866;2022-11-20T16:13:12;0.30;99.90
26182;DHT22;13927;51.534;11.866;2022-11-20T16:15:59;0.30;99.90
26182;DHT22;13927;51.534;11.866;2022-11-20T16:18:31;0.20;99.90
26182;DHT22;13927;51.534;11.866;2022-11-20T16:20:57;0.00;99.90
26182;DHT22;13927;51.534;11.866;2022-11-20T16:23:23;0.00;99.90
26182;DHT22;13927;51.534;11.866;2022-11-20T16:25:50;-0.10;99.90
26182;DHT22;13927;51.534;11.866;2022-11-20T16:28:17;-0.10;99.90
26182;DHT22;13927;51.534;11.866;2022-11-20T16:30:43;-0.20;99.90
26182;DHT22;13927;51.534;11.866;2022-11-20T16:33:14;-0.20;99.90
26182;DHT22;13927;51.534;11.866;2022-11-20T16:35:42;-0.30;99.90
26182;DHT22;13927;51.534;11.866;2022-11-20T16:38:08;-0.30;99.90
26182;DHT22;13927;51.534;11.866;2022-11-20T16:40:34;-0.40;99.90
26182;DHT22;13927;51.534;11.866;2022-11-20T16:43:12;-0.40;99.90
26182;DHT22;13927;51.534;11.866;2022-11-20T16:45:43;-0.50;99.90
26182;DHT22;13927;51.534;11.866;2022-11-20T16:48:14;-0.60;99.90
26182;DHT22;13927;51.534;11.866;2022-11-20T16:50:49;-0.60;99.90
26182;DHT22;13927;51.534;11.866;2022-11-20T16:53:20;-0.70;99.90
26182;DHT22;13927;51.534;11.866;2022-11-20T16:55:46;-0.80;99.90
26182;DHT22;13927;51.534;11.866;2022-11-20T16:58:13;-0.80;99.90
26182;DHT22;13927;51.534;11.866;2022-11-20T17:00:40;-0.90;99.90
26182;DHT22;13927;51.534;11.866;2022-11-20T17:03:06;-0.90;99.90
26182;DHT22;13927;51.534;11.866;2022-11-20T17:05:33;-1.00;99.90
26182;DHT22;13927;51.534;11.866;2022-11-20T17:07:59;-1.00;99.90
26182;DHT22;13927;51.534;11.866;2022-11-20T17:10:25;-1.00;99.90
26182;DHT22;13927;51.534;11.866;2022-11-20T17:12:51;-1.10;99.90
26182;DHT22;13927;51.534;11.866;2022-11-20T17:15:16;-1.10;99.90